createdAt,value
2023-05-05T00:02:09.220Z,4.47
2023-05-05T00:04:36.892Z,4.53
2023-05-05T00:07:04.175Z,4.78
2023-05-05T00:09:32.826Z,5.03
2023-05-05T00:12:00.325Z,4.63
2023-05-05T00:14:27.643Z,4.70
2023-05-05T00:16:55.080Z,4.47
2023-05-05T00:19:22.369Z,4.68
2023-05-05T00:21:49.660Z,4.75
2023-05-05T00:24:17.021Z,4.40
2023-05-05T00:26:45.787Z,4.55
2023-05-05T00:29:13.122Z,5.07
2023-05-05T00:31:40.618Z,4.07
2023-05-05T00:34:08.060Z,4.68
2023-05-05T00:36:35.372Z,5.00
2023-05-05T00:39:02.668Z,5.50
2023-05-05T00:41:30.121Z,5.03
2023-05-05T00:43:58.779Z,4.75
2023-05-05T00:46:27.587Z,5.25
2023-05-05T00:48:55.342Z,4.50
2023-05-05T00:51:22.901Z,4.95
2023-05-05T00:53:50.544Z,5.60
2023-05-05T00:56:18.365Z,5.53
2023-05-05T00:58:45.987Z,4.90
2023-05-05T01:01:15.289Z,5.30
2023-05-05T01:03:42.725Z,4.82
2023-05-05T01:06:15.479Z,5.10
2023-05-05T01:08:47.765Z,5.72
2023-05-05T01:11:17.945Z,5.80
2023-05-05T01:13:49.065Z,5.20
2023-05-05T01:16:19.682Z,5.50
2023-05-05T01:18:51.925Z,4.88
2023-05-05T01:21:21.043Z,5.30
2023-05-05T01:24:07.713Z,5.10
2023-05-05T01:26:42.698Z,5.88
2023-05-05T01:29:27.101Z,5.35
2023-05-05T01:31:57.046Z,5.80
2023-05-05T01:34:25.823Z,5.50
2023-05-05T01:36:56.358Z,6.25
2023-05-05T01:39:25.570Z,6.10
2023-05-05T01:41:58.808Z,6.18
2023-05-05T01:44:26.246Z,6.75
2023-05-05T01:46:54.584Z,7.50
2023-05-05T01:49:23.664Z,7.32
2023-05-05T01:51:51.518Z,6.85
2023-05-05T01:54:19.567Z,7.15
2023-05-05T01:56:47.244Z,7.18
2023-05-05T01:59:14.636Z,7.05
2023-05-05T02:01:44.494Z,7.13
2023-05-05T02:04:14.298Z,7.20
2023-05-05T02:06:44.226Z,6.93
2023-05-05T02:09:12.742Z,6.97
2023-05-05T02:11:40.486Z,6.95
2023-05-05T02:14:08.954Z,7.38
2023-05-05T02:16:37.344Z,6.97
2023-05-05T02:19:05.307Z,6.88
2023-05-05T02:21:33.595Z,7.05
2023-05-05T02:24:02.457Z,7.10
2023-05-05T02:26:30.601Z,7.05
2023-05-05T02:29:03.057Z,6.80
2023-05-05T02:31:32.066Z,6.97
2023-05-05T02:34:01.403Z,7.07
2023-05-05T02:36:30.168Z,6.95
2023-05-05T02:39:00.012Z,6.97
2023-05-05T02:41:29.943Z,6.90
2023-05-05T02:43:58.635Z,7.10
2023-05-05T02:46:26.674Z,7.50
2023-05-05T02:48:54.063Z,8.30
2023-05-05T02:51:21.386Z,7.60
2023-05-05T02:53:48.734Z,8.68
2023-05-05T02:56:18.762Z,9.07
2023-05-05T02:58:52.624Z,9.15
2023-05-05T03:01:27.473Z,8.80
2023-05-05T03:06:23.642Z,8.55
2023-05-05T03:08:53.431Z,8.68
2023-05-05T03:11:23.975Z,8.85
2023-05-05T03:13:57.243Z,8.25
2023-05-05T03:16:26.212Z,9.40
2023-05-05T03:18:54.275Z,8.85
2023-05-05T03:21:21.708Z,8.57
2023-05-05T03:23:49.170Z,8.27
2023-05-05T03:26:17.770Z,8.65
2023-05-05T03:28:45.078Z,8.65
2023-05-05T03:31:13.834Z,8.27
2023-05-05T03:33:41.328Z,8.07
2023-05-05T03:36:08.750Z,8.68
2023-05-05T03:38:39.123Z,7.95
2023-05-05T03:41:06.427Z,8.40
2023-05-05T03:43:33.775Z,9.02
2023-05-05T03:46:01.121Z,8.77
2023-05-05T03:48:29.842Z,8.60
2023-05-05T03:50:57.162Z,8.45
2023-05-05T03:53:24.458Z,8.50
2023-05-05T03:55:51.838Z,8.38
2023-05-05T03:58:19.126Z,8.57
2023-05-05T04:00:46.436Z,9.23
2023-05-05T04:03:13.890Z,10.10
2023-05-05T04:05:42.704Z,9.10
2023-05-05T04:08:10.047Z,9.70
2023-05-05T04:10:37.383Z,9.48
2023-05-05T04:13:05.000Z,9.80
2023-05-05T04:15:32.382Z,10.30
2023-05-05T04:17:59.722Z,10.48
2023-05-05T04:20:27.149Z,9.85
2023-05-05T04:22:55.852Z,10.30
2023-05-05T04:25:23.181Z,10.27
2023-05-05T04:27:50.482Z,9.75
2023-05-05T04:30:17.894Z,9.80
2023-05-05T04:32:45.292Z,11.05
2023-05-05T04:35:12.637Z,10.32
2023-05-05T04:37:39.935Z,10.45
2023-05-05T04:40:10.522Z,10.30
2023-05-05T04:42:40.649Z,10.20
2023-05-05T04:45:09.636Z,10.63
2023-05-05T04:47:40.188Z,9.85
2023-05-05T04:50:08.257Z,9.82
2023-05-05T04:52:35.807Z,10.25
2023-05-05T04:55:03.356Z,9.85
2023-05-05T04:57:32.003Z,9.32
2023-05-05T05:00:00.314Z,10.60
2023-05-05T05:02:27.975Z,9.80
2023-05-05T05:04:55.432Z,10.23
2023-05-05T05:07:22.746Z,9.95
2023-05-05T05:09:50.048Z,10.10
2023-05-05T05:12:17.366Z,9.82
2023-05-05T05:14:46.037Z,10.07
2023-05-05T05:17:13.374Z,9.45
2023-05-05T05:19:40.721Z,10.18
2023-05-05T05:22:07.990Z,10.60
2023-05-05T05:24:36.212Z,9.75
2023-05-05T05:27:09.856Z,9.27
2023-05-05T05:29:37.542Z,9.30
2023-05-05T05:32:06.457Z,9.48
2023-05-05T05:34:33.862Z,10.25
2023-05-05T05:37:01.251Z,9.40
2023-05-05T05:39:28.590Z,9.60
2023-05-05T05:41:55.913Z,8.70
2023-05-05T05:44:23.256Z,8.23
2023-05-05T05:46:50.586Z,9.13
2023-05-05T05:49:19.237Z,9.27
2023-05-05T05:51:46.614Z,8.75
2023-05-05T05:54:13.882Z,8.98
2023-05-05T05:56:41.339Z,9.30
2023-05-05T05:59:10.009Z,9.57
2023-05-05T06:01:37.489Z,9.30
2023-05-05T06:04:04.923Z,9.15
2023-05-05T06:06:33.678Z,9.10
2023-05-05T06:09:01.026Z,10.05
2023-05-05T06:11:28.488Z,9.77
2023-05-05T06:13:55.770Z,9.30
2023-05-05T06:16:23.173Z,9.07
2023-05-05T06:18:50.479Z,9.35
2023-05-05T06:21:20.427Z,9.75
2023-05-05T06:23:49.082Z,9.77
2023-05-05T06:26:16.779Z,9.90
2023-05-05T06:28:44.077Z,9.27
2023-05-05T06:31:12.687Z,9.70
2023-05-05T06:33:40.009Z,10.13
2023-05-05T06:36:07.447Z,8.98
2023-05-05T06:38:34.734Z,10.10
2023-05-05T06:41:03.459Z,9.50
2023-05-05T06:43:31.039Z,10.73
2023-05-05T06:45:58.347Z,11.60
2023-05-05T06:48:25.753Z,10.75
2023-05-05T06:50:53.055Z,10.98
2023-05-05T06:53:20.368Z,11.30
2023-05-05T06:55:48.068Z,10.73
2023-05-05T06:58:16.741Z,11.50
2023-05-05T07:00:44.072Z,11.63
2023-05-05T07:03:11.552Z,11.25
2023-05-05T07:05:39.007Z,11.73
2023-05-05T07:08:06.498Z,11.10
2023-05-05T07:10:33.825Z,12.63
2023-05-05T07:13:01.284Z,11.70
2023-05-05T07:15:30.093Z,11.75
2023-05-05T07:17:57.480Z,11.93
2023-05-05T07:20:25.341Z,11.50
2023-05-05T07:22:52.710Z,12.25
2023-05-05T07:25:20.226Z,11.45
2023-05-05T07:27:47.584Z,12.10
2023-05-05T07:30:17.587Z,11.63
2023-05-05T07:32:47.292Z,12.13
2023-05-05T07:35:14.806Z,12.00
2023-05-05T07:37:42.306Z,12.57
2023-05-05T07:40:10.416Z,12.13
2023-05-05T07:42:38.041Z,12.25
2023-05-05T07:45:05.897Z,11.82
2023-05-05T07:47:33.232Z,11.05
2023-05-05T07:50:02.274Z,10.48
2023-05-05T07:52:44.200Z,10.18
2023-05-05T07:55:13.790Z,11.93
2023-05-05T07:57:41.402Z,13.30
2023-05-05T08:00:09.593Z,13.13
2023-05-05T08:02:37.263Z,13.20
2023-05-05T08:05:06.700Z,13.30
2023-05-05T08:07:36.372Z,13.00
2023-05-05T08:10:03.671Z,12.80
2023-05-05T08:12:31.006Z,12.57
2023-05-05T08:14:58.317Z,10.90
2023-05-05T08:17:27.008Z,11.43
2023-05-05T08:19:54.429Z,10.95
2023-05-05T08:22:23.254Z,11.05
2023-05-05T08:24:50.802Z,10.30
2023-05-05T08:27:18.214Z,12.30
2023-05-05T08:29:45.514Z,12.18
2023-05-05T08:32:12.820Z,12.20
2023-05-05T08:34:40.082Z,13.20
2023-05-05T08:37:07.365Z,13.57
2023-05-05T08:39:36.029Z,14.50
2023-05-05T08:42:03.829Z,14.95
2023-05-05T08:44:31.105Z,15.13
2023-05-05T08:46:58.997Z,15.27
2023-05-05T08:49:26.511Z,14.77
2023-05-05T08:51:55.026Z,14.00
2023-05-05T08:54:24.898Z,14.57
2023-05-05T08:56:54.094Z,14.57
2023-05-05T08:59:24.093Z,14.10
2023-05-05T09:01:52.259Z,14.45
2023-05-05T09:04:19.829Z,15.63
2023-05-05T09:06:47.167Z,13.18
2023-05-05T09:09:14.549Z,14.18
2023-05-05T09:11:42.457Z,13.35
2023-05-05T09:14:11.105Z,14.23
2023-05-05T09:16:41.193Z,13.07
2023-05-05T09:19:08.750Z,13.68
2023-05-05T09:21:36.142Z,12.85
2023-05-05T09:24:08.906Z,12.57
2023-05-05T09:26:37.278Z,11.93
2023-05-05T09:29:04.796Z,10.80
2023-05-05T09:31:33.979Z,9.88
2023-05-05T09:34:01.766Z,11.40
2023-05-05T09:36:41.848Z,10.25
2023-05-05T09:39:09.151Z,9.30
2023-05-05T09:41:39.771Z,11.73
2023-05-05T09:44:07.605Z,12.75
2023-05-05T09:46:36.294Z,13.52
2023-05-05T09:49:13.298Z,11.07
2023-05-05T09:51:40.819Z,10.80
2023-05-05T09:54:08.312Z,10.60
2023-05-05T09:56:39.249Z,12.32
2023-05-05T09:59:09.747Z,10.43
2023-05-05T10:01:38.840Z,8.95
2023-05-05T10:04:06.709Z,11.10
2023-05-05T10:06:40.820Z,11.95
2023-05-05T10:09:08.182Z,13.30
2023-05-05T10:11:36.359Z,12.02
2023-05-05T10:14:05.240Z,12.82
2023-05-05T10:16:33.853Z,12.23
2023-05-05T10:19:04.043Z,12.60
2023-05-05T10:21:34.078Z,12.10
2023-05-05T10:24:07.449Z,11.23
2023-05-05T10:26:35.293Z,10.90
2023-05-05T10:29:03.903Z,11.75
2023-05-05T10:31:38.238Z,12.20
2023-05-05T10:34:09.856Z,11.52
2023-05-05T10:36:38.734Z,10.45
2023-05-05T10:39:06.762Z,11.55
2023-05-05T10:41:34.206Z,10.48
2023-05-05T10:44:04.408Z,9.73
2023-05-05T10:46:32.295Z,10.70
2023-05-05T10:49:03.800Z,10.50
2023-05-05T10:51:40.482Z,9.07
2023-05-05T10:54:11.396Z,10.95
2023-05-05T10:56:41.072Z,9.32
2023-05-05T10:59:23.276Z,6.50
2023-05-05T11:01:51.986Z,4.20
2023-05-05T11:04:23.381Z,3.85
2023-05-05T11:07:20.925Z,4.13
2023-05-05T11:09:56.452Z,3.10
2023-05-05T11:12:23.817Z,2.28
2023-05-05T11:15:06.090Z,1.52
2023-05-05T11:17:46.114Z,1.50
2023-05-05T11:20:13.547Z,1.67
2023-05-05T11:22:59.729Z,2.42
2023-05-05T11:25:45.706Z,2.60
2023-05-05T11:28:16.172Z,2.65
2023-05-05T11:30:58.858Z,3.22
2023-05-05T11:33:28.452Z,3.00
2023-05-05T11:35:56.044Z,3.50
2023-05-05T11:38:26.908Z,3.92
2023-05-05T11:40:56.383Z,3.75
2023-05-05T11:43:25.114Z,4.20
2023-05-05T11:46:10.157Z,4.93
2023-05-05T11:48:44.955Z,5.28
2023-05-05T11:51:12.372Z,4.68
2023-05-05T11:53:42.466Z,4.65
2023-05-05T11:56:10.700Z,5.55
2023-05-05T11:58:39.380Z,4.60
2023-05-05T12:01:07.320Z,3.85
2023-05-05T12:03:35.858Z,4.03
2023-05-05T12:06:03.389Z,3.25
2023-05-05T12:08:36.034Z,3.92
2023-05-05T12:11:03.544Z,5.07
2023-05-05T12:13:30.943Z,4.25
2023-05-05T12:16:08.528Z,3.95
2023-05-05T12:18:36.248Z,3.22
2023-05-05T12:21:04.032Z,3.22
2023-05-05T12:23:38.202Z,3.50
2023-05-05T12:26:05.675Z,3.28
2023-05-05T12:28:46.231Z,3.20
2023-05-05T12:31:16.041Z,4.15
2023-05-05T12:33:44.171Z,4.10
2023-05-05T12:36:12.076Z,4.38
2023-05-05T12:38:39.581Z,4.20
2023-05-05T12:41:06.979Z,4.40
2023-05-05T12:43:34.854Z,4.75
2023-05-05T12:46:07.036Z,5.63
2023-05-05T12:48:37.710Z,4.47
2023-05-05T12:51:14.915Z,4.55
2023-05-05T12:53:42.287Z,4.45
2023-05-05T12:56:24.743Z,5.10
2023-05-05T12:58:52.085Z,4.50
2023-05-05T13:01:19.414Z,4.43
2023-05-05T13:03:48.074Z,4.30
2023-05-05T13:06:21.565Z,5.05
2023-05-05T13:08:49.027Z,5.38
2023-05-05T13:11:16.750Z,4.68
2023-05-05T13:13:44.024Z,5.55
2023-05-05T13:16:11.368Z,5.97
2023-05-05T13:18:45.111Z,5.68
2023-05-05T13:21:13.765Z,5.78
2023-05-05T13:23:43.609Z,5.38
2023-05-05T13:26:11.238Z,3.90
2023-05-05T13:28:38.754Z,4.05
2023-05-05T13:31:06.873Z,4.38
2023-05-05T13:33:34.502Z,3.97
2023-05-05T13:36:01.946Z,3.63
2023-05-05T13:38:32.141Z,3.45
2023-05-05T13:40:59.839Z,3.08
2023-05-05T13:43:27.245Z,2.58
2023-05-05T13:45:57.118Z,2.53
2023-05-05T13:48:27.934Z,2.83
2023-05-05T13:50:55.234Z,2.60
2023-05-05T13:53:22.661Z,2.47
2023-05-05T13:55:51.385Z,2.13
2023-05-05T13:58:18.682Z,2.33
2023-05-05T14:00:46.400Z,2.38
2023-05-05T14:03:13.963Z,2.08
2023-05-05T14:05:42.610Z,2.15
2023-05-05T14:08:10.305Z,2.05
2023-05-05T14:10:37.679Z,1.80
2023-05-05T14:13:06.374Z,2.33
2023-05-05T14:15:34.035Z,2.47
2023-05-05T14:18:01.421Z,2.28
2023-05-05T14:20:28.741Z,2.30
2023-05-05T14:22:56.318Z,2.10
2023-05-05T14:25:23.699Z,2.50
2023-05-05T14:27:51.079Z,2.80
2023-05-05T14:30:19.757Z,3.30
2023-05-05T14:32:47.151Z,2.90
2023-05-05T14:35:14.477Z,4.10
2023-05-05T14:37:41.965Z,2.90
2023-05-05T14:40:10.156Z,2.83
2023-05-05T14:42:37.628Z,2.75
2023-05-05T14:45:06.255Z,3.83
2023-05-05T14:47:35.434Z,3.17
2023-05-05T14:50:02.773Z,2.83
2023-05-05T14:52:30.096Z,2.75
2023-05-05T14:54:57.400Z,2.80
2023-05-05T14:57:24.731Z,2.97
2023-05-05T14:59:52.965Z,3.05
2023-05-05T15:02:20.319Z,3.30
2023-05-05T15:04:49.832Z,3.40
2023-05-05T15:07:17.307Z,2.80
2023-05-05T15:09:44.648Z,2.95
2023-05-05T15:12:11.968Z,3.10
2023-05-05T15:14:39.803Z,3.47
2023-05-05T15:17:07.099Z,3.97
2023-05-05T15:19:34.429Z,3.30
2023-05-05T15:22:03.228Z,3.58
2023-05-05T15:24:30.585Z,3.20
2023-05-05T15:26:57.848Z,3.97
2023-05-05T15:29:25.127Z,4.00
2023-05-05T15:31:52.681Z,3.45
2023-05-05T15:34:20.101Z,3.53
2023-05-05T15:36:47.399Z,3.67
2023-05-05T15:39:16.020Z,3.80
2023-05-05T15:41:43.346Z,4.07
2023-05-05T15:44:12.509Z,3.80
2023-05-05T15:46:40.764Z,3.05
2023-05-05T15:49:08.110Z,3.63
2023-05-05T15:51:35.704Z,3.00
2023-05-05T15:54:03.065Z,2.65
2023-05-05T15:56:31.741Z,2.85
2023-05-05T15:58:59.035Z,2.72
2023-05-05T16:01:26.338Z,2.38
2023-05-05T16:03:53.686Z,2.63
2023-05-05T16:06:21.915Z,2.80
2023-05-05T16:08:51.579Z,2.90
2023-05-05T16:11:21.826Z,2.53
2023-05-05T16:13:51.141Z,2.67
2023-05-05T16:16:18.776Z,3.05
2023-05-05T16:18:46.109Z,2.45
2023-05-05T16:21:13.467Z,2.38
2023-05-05T16:23:40.785Z,2.25
2023-05-05T16:26:08.414Z,1.95
2023-05-05T16:28:35.869Z,1.77
2023-05-05T16:31:04.533Z,1.60
2023-05-05T16:33:31.964Z,1.80
2023-05-05T16:35:59.396Z,1.77
2023-05-05T16:38:26.763Z,1.40
2023-05-05T16:40:54.085Z,1.30
2023-05-05T16:43:21.399Z,1.77
2023-05-05T16:45:48.773Z,2.33
2023-05-05T16:48:18.311Z,2.20
2023-05-05T16:50:45.665Z,2.40
2023-05-05T16:53:12.940Z,2.83
2023-05-05T16:55:40.221Z,2.45
2023-05-05T16:58:07.520Z,2.63
2023-05-05T17:00:34.846Z,3.08
2023-05-05T17:03:02.267Z,2.83
2023-05-05T17:05:30.999Z,3.03
2023-05-05T17:07:58.359Z,3.42
2023-05-05T17:10:25.728Z,3.60
2023-05-05T17:12:53.058Z,4.20
2023-05-05T17:15:20.914Z,4.35
2023-05-05T17:17:48.301Z,3.90
2023-05-05T17:20:15.634Z,5.18
2023-05-05T17:22:46.362Z,5.32
2023-05-05T17:25:13.640Z,6.22
2023-05-05T17:27:41.666Z,6.53
2023-05-05T17:30:09.651Z,7.28
2023-05-05T17:32:37.051Z,7.93
2023-05-05T17:35:04.453Z,8.93
2023-05-05T17:37:32.184Z,11.30
2023-05-05T17:40:00.841Z,17.88
2023-05-05T18:39:51.212Z,30.25
2023-05-05T18:42:18.495Z,32.10
2023-05-05T18:44:45.878Z,30.05
2023-05-05T18:47:13.143Z,33.50
2023-05-05T18:49:40.427Z,33.45
2023-05-05T18:52:07.926Z,33.08
2023-05-05T18:54:37.662Z,32.35
2023-05-05T18:57:06.687Z,30.73
2023-05-05T18:59:34.155Z,32.50
2023-05-05T19:02:02.230Z,32.35
2023-05-05T19:04:31.730Z,31.05
2023-05-05T19:06:59.558Z,33.03
2023-05-05T19:09:26.942Z,31.52
2023-05-05T19:11:54.339Z,34.33
2023-05-05T19:14:24.089Z,31.67
2023-05-05T19:16:51.613Z,31.15
2023-05-05T19:19:19.078Z,32.53
2023-05-05T19:21:46.413Z,35.33
2023-05-05T19:24:13.779Z,34.55
2023-05-05T19:26:41.161Z,33.42
2023-05-05T19:29:08.639Z,33.10
2023-05-05T19:31:37.456Z,33.65
2023-05-05T19:34:06.040Z,33.78
2023-05-05T19:36:33.685Z,32.25
2023-05-05T19:39:01.612Z,34.83
2023-05-05T19:41:29.180Z,32.92
2023-05-05T19:43:56.489Z,34.47
2023-05-05T19:46:25.386Z,37.97
2023-05-05T19:48:54.150Z,37.75
2023-05-05T19:51:21.607Z,36.65
2023-05-05T19:53:48.989Z,36.08
2023-05-05T19:56:16.953Z,37.58
2023-05-05T19:58:54.523Z,35.90
2023-05-05T20:01:22.410Z,37.17
2023-05-05T20:03:50.038Z,37.22
2023-05-05T20:06:18.937Z,38.58
2023-05-05T20:08:46.303Z,36.78
2023-05-05T20:11:14.800Z,36.40
2023-05-05T20:13:42.106Z,37.35
2023-05-05T20:16:09.767Z,37.28
2023-05-05T20:18:37.221Z,37.20
2023-05-05T20:21:04.565Z,35.58
2023-05-05T20:23:33.584Z,40.38
2023-05-05T20:26:01.490Z,41.58
2023-05-05T20:28:28.832Z,37.67
2023-05-05T20:30:56.131Z,39.15
2023-05-05T20:33:23.521Z,37.28
2023-05-05T20:35:50.850Z,36.20
2023-05-05T20:38:18.200Z,38.63
2023-05-05T20:40:46.879Z,37.35
2023-05-05T20:43:14.177Z,40.03
2023-05-05T20:45:41.530Z,39.85
2023-05-05T20:48:11.001Z,43.88
2023-05-05T20:50:38.495Z,42.60
2023-05-05T20:53:06.045Z,42.85
2023-05-05T20:55:33.408Z,41.10
2023-05-05T20:58:02.082Z,44.13
2023-05-05T21:00:29.488Z,41.85
2023-05-05T21:02:57.242Z,44.92
2023-05-05T21:05:24.734Z,42.83
2023-05-05T21:07:53.960Z,45.28
2023-05-05T21:10:21.670Z,44.28
2023-05-05T21:12:49.048Z,46.47
2023-05-05T21:15:17.801Z,47.30
2023-05-05T21:17:45.098Z,46.13
2023-05-05T21:20:13.269Z,45.88
2023-05-05T21:22:40.913Z,47.67
2023-05-05T21:25:11.657Z,46.75
2023-05-05T21:27:39.018Z,49.90
2023-05-05T21:30:10.041Z,46.95
2023-05-05T21:32:39.859Z,46.45
2023-05-05T21:35:07.792Z,46.38
2023-05-05T21:37:35.346Z,50.47
2023-05-05T21:40:02.688Z,50.33
2023-05-05T21:42:30.215Z,48.08
2023-05-05T21:44:57.575Z,47.13
2023-05-05T21:47:24.941Z,49.75
2023-05-05T21:49:53.666Z,50.92
2023-05-05T21:52:21.022Z,50.70
2023-05-05T21:54:48.327Z,50.63
2023-05-05T21:57:15.924Z,54.13
2023-05-05T21:59:43.264Z,50.97
2023-05-05T22:02:10.595Z,52.70
2023-05-05T22:04:37.891Z,51.83
2023-05-05T22:07:06.899Z,51.90
2023-05-05T22:09:34.277Z,50.50
2023-05-05T22:12:02.443Z,51.70
2023-05-05T22:14:29.865Z,52.22
2023-05-05T22:16:57.238Z,49.05
2023-05-05T22:19:24.574Z,54.20
2023-05-05T22:21:51.958Z,50.00
2023-05-05T22:24:20.639Z,51.88
2023-05-05T22:26:47.952Z,52.75
2023-05-05T22:29:15.321Z,56.85
2023-05-05T22:31:42.802Z,53.10
2023-05-05T22:34:10.190Z,52.05
2023-05-05T22:36:37.533Z,51.90
2023-05-05T22:39:04.923Z,56.35
2023-05-05T22:41:33.593Z,51.13
2023-05-05T22:44:00.963Z,52.00
2023-05-05T22:46:28.339Z,53.47
2023-05-05T22:48:55.744Z,55.63
2023-05-05T22:51:23.214Z,54.22
2023-05-05T22:53:51.005Z,56.33
2023-05-05T22:56:18.337Z,56.83
2023-05-05T22:58:47.391Z,57.20
2023-05-05T23:01:14.788Z,57.95
2023-05-05T23:03:42.221Z,58.50
2023-05-05T23:06:10.207Z,59.92
2023-05-05T23:08:37.498Z,61.95
2023-05-05T23:11:04.897Z,68.22
2023-05-05T23:13:32.197Z,62.50
2023-05-05T23:16:00.934Z,67.28
2023-05-05T23:18:28.326Z,67.75
2023-05-05T23:20:55.747Z,62.65
2023-05-05T23:23:23.034Z,63.50
2023-05-05T23:25:51.231Z,62.60
2023-05-05T23:28:18.552Z,61.75
2023-05-05T23:30:45.896Z,68.93
2023-05-05T23:33:14.579Z,66.47
2023-05-05T23:35:43.331Z,59.70
2023-05-05T23:38:10.681Z,65.75
2023-05-05T23:40:38.095Z,60.88
2023-05-05T23:43:05.387Z,60.70
2023-05-05T23:45:32.665Z,63.45
2023-05-05T23:48:00.035Z,60.13
2023-05-05T23:50:30.009Z,67.45
2023-05-05T23:52:57.352Z,63.95
2023-05-05T23:55:24.739Z,61.67
2023-05-05T23:57:52.991Z,63.25
